sensor_id;sensor_type;location;lat;lon;timestamp;P1;durP1;ratioP1;P2;durP2;ratioP2
21943;SDS011;11136;48.778;9.126;2023-08-06T00:00:03;7.03;;;2.70;;
21943;SDS011;11136;48.778;9.126;2023-08-06T00:02:30;3.20;;;2.38;;
21943;SDS011;11136;48.778;9.126;2023-08-06T00:04:55;4.55;;;2.85;;
21943;SDS011;11136;48.778;9.126;2023-08-06T00:07:21;2.50;;;2.20;;
21943;SDS011;11136;48.778;9.126;2023-08-06T00:09:46;5.70;;;2.60;;
21943;SDS011;11136;48.778;9.126;2023-08-06T00:12:12;5.20;;;2.55;;
21943;SDS011;11136;48.778;9.126;2023-08-06T00:14:37;3.25;;;2.38;;
21943;SDS011;11136;48.778;9.126;2023-08-06T00:17:03;6.20;;;2.88;;
21943;SDS011;11136;48.778;9.126;2023-08-06T00:19:29;3.65;;;2.97;;
21943;SDS011;11136;48.778;9.126;2023-08-06T00:21:56;3.20;;;2.38;;
21943;SDS011;11136;48.778;9.126;2023-08-06T00:24:21;2.38;;;2.17;;
21943;SDS011;11136;48.778;9.126;2023-08-06T00:26:47;2.25;;;1.95;;
21943;SDS011;11136;48.778;9.126;2023-08-06T00:29:12;3.83;;;2.45;;
21943;SDS011;11136;48.778;9.126;2023-08-06T00:31:38;2.90;;;2.20;;
21943;SDS011;11136;48.778;9.126;2023-08-06T00:34:03;2.75;;;2.08;;
21943;SDS011;11136;48.778;9.126;2023-08-06T00:36:29;4.85;;;2.47;;
21943;SDS011;11136;48.778;9.126;2023-08-06T00:38:54;3.38;;;2.10;;
21943;SDS011;11136;48.778;9.126;2023-08-06T00:41:20;4.68;;;2.00;;
21943;SDS011;11136;48.778;9.126;2023-08-06T00:43:46;3.53;;;2.10;;
21943;SDS011;11136;48.778;9.126;2023-08-06T00:46:12;3.88;;;2.20;;
21943;SDS011;11136;48.778;9.126;2023-08-06T00:48:38;2.83;;;2.30;;
21943;SDS011;11136;48.778;9.126;2023-08-06T00:51:05;3.58;;;2.13;;
21943;SDS011;11136;48.778;9.126;2023-08-06T00:53:31;4.35;;;2.25;;
21943;SDS011;11136;48.778;9.126;2023-08-06T00:55:57;4.38;;;2.17;;
21943;SDS011;11136;48.778;9.126;2023-08-06T00:58:23;3.58;;;2.10;;
21943;SDS011;11136;48.778;9.126;2023-08-06T01:00:49;2.53;;;2.33;;
21943;SDS011;11136;48.778;9.126;2023-08-06T01:03:15;2.83;;;2.10;;
21943;SDS011;11136;48.778;9.126;2023-08-06T01:05:41;3.92;;;1.73;;
21943;SDS011;11136;48.778;9.126;2023-08-06T01:16:08;7.00;;;2.00;;
21943;SDS011;11136;48.778;9.126;2023-08-06T01:18:35;2.65;;;2.17;;
21943;SDS011;11136;48.778;9.126;2023-08-06T01:21:02;5.00;;;2.25;;
21943;SDS011;11136;48.778;9.126;2023-08-06T01:23:28;3.78;;;2.00;;
21943;SDS011;11136;48.778;9.126;2023-08-06T01:33:39;2.60;;;1.88;;
21943;SDS011;11136;48.778;9.126;2023-08-06T01:36:09;2.10;;;1.90;;
21943;SDS011;11136;48.778;9.126;2023-08-06T01:41:24;3.15;;;2.28;;
21943;SDS011;11136;48.778;9.126;2023-08-06T01:43:50;9.02;;;2.92;;
21943;SDS011;11136;48.778;9.126;2023-08-06T01:46:16;5.05;;;1.77;;
21943;SDS011;11136;48.778;9.126;2023-08-06T01:48:42;2.78;;;2.13;;
21943;SDS011;11136;48.778;9.126;2023-08-06T01:51:08;2.47;;;2.17;;
21943;SDS011;11136;48.778;9.126;2023-08-06T01:53:33;3.55;;;1.92;;
21943;SDS011;11136;48.778;9.126;2023-08-06T01:55:59;3.85;;;1.83;;
21943;SDS011;11136;48.778;9.126;2023-08-06T01:58:25;2.33;;;1.77;;
21943;SDS011;11136;48.778;9.126;2023-08-06T02:00:50;3.00;;;1.60;;
21943;SDS011;11136;48.778;9.126;2023-08-06T02:03:16;4.70;;;1.60;;
21943;SDS011;11136;48.778;9.126;2023-08-06T02:05:41;2.58;;;1.80;;
21943;SDS011;11136;48.778;9.126;2023-08-06T02:08:07;5.88;;;2.20;;
21943;SDS011;11136;48.778;9.126;2023-08-06T02:10:33;3.33;;;2.03;;
21943;SDS011;11136;48.778;9.126;2023-08-06T02:12:59;1.67;;;1.55;;
21943;SDS011;11136;48.778;9.126;2023-08-06T02:15:25;2.13;;;1.80;;
21943;SDS011;11136;48.778;9.126;2023-08-06T02:17:50;2.85;;;2.15;;
21943;SDS011;11136;48.778;9.126;2023-08-06T02:20:16;3.30;;;1.88;;
21943;SDS011;11136;48.778;9.126;2023-08-06T02:22:42;4.07;;;1.95;;
21943;SDS011;11136;48.778;9.126;2023-08-06T02:25:07;2.15;;;1.77;;
21943;SDS011;11136;48.778;9.126;2023-08-06T02:27:33;6.22;;;2.33;;
21943;SDS011;11136;48.778;9.126;2023-08-06T02:29:58;2.15;;;1.67;;
21943;SDS011;11136;48.778;9.126;2023-08-06T02:32:24;4.88;;;1.80;;
21943;SDS011;11136;48.778;9.126;2023-08-06T02:34:49;5.15;;;2.40;;
21943;SDS011;11136;48.778;9.126;2023-08-06T02:37:15;4.82;;;2.22;;
21943;SDS011;11136;48.778;9.126;2023-08-06T02:39:41;5.63;;;2.22;;
21943;SDS011;11136;48.778;9.126;2023-08-06T02:42:07;5.32;;;1.80;;
21943;SDS011;11136;48.778;9.126;2023-08-06T02:44:32;2.65;;;1.95;;
21943;SDS011;11136;48.778;9.126;2023-08-06T02:46:59;6.43;;;2.22;;
21943;SDS011;11136;48.778;9.126;2023-08-06T02:49:25;1.75;;;1.48;;
21943;SDS011;11136;48.778;9.126;2023-08-06T02:51:50;2.60;;;1.67;;
21943;SDS011;11136;48.778;9.126;2023-08-06T02:54:17;3.30;;;1.58;;
21943;SDS011;11136;48.778;9.126;2023-08-06T02:56:43;2.13;;;1.75;;
21943;SDS011;11136;48.778;9.126;2023-08-06T02:59:09;3.75;;;1.80;;
21943;SDS011;11136;48.778;9.126;2023-08-06T03:01:35;2.92;;;1.98;;
21943;SDS011;11136;48.778;9.126;2023-08-06T03:04:01;2.63;;;1.88;;
21943;SDS011;11136;48.778;9.126;2023-08-06T03:06:27;2.97;;;1.90;;
21943;SDS011;11136;48.778;9.126;2023-08-06T03:08:53;2.92;;;1.83;;
21943;SDS011;11136;48.778;9.126;2023-08-06T03:11:18;2.30;;;1.50;;
21943;SDS011;11136;48.778;9.126;2023-08-06T03:13:44;2.10;;;1.85;;
21943;SDS011;11136;48.778;9.126;2023-08-06T03:16:10;5.90;;;1.75;;
21943;SDS011;11136;48.778;9.126;2023-08-06T03:18:35;4.22;;;1.90;;
21943;SDS011;11136;48.778;9.126;2023-08-06T03:21:01;3.63;;;1.60;;
21943;SDS011;11136;48.778;9.126;2023-08-06T03:23:27;3.83;;;2.25;;
21943;SDS011;11136;48.778;9.126;2023-08-06T03:25:53;1.80;;;1.58;;
21943;SDS011;11136;48.778;9.126;2023-08-06T03:28:19;2.00;;;1.58;;
21943;SDS011;11136;48.778;9.126;2023-08-06T03:30:44;1.55;;;1.45;;
21943;SDS011;11136;48.778;9.126;2023-08-06T03:33:10;3.58;;;2.10;;
21943;SDS011;11136;48.778;9.126;2023-08-06T03:35:35;4.03;;;1.80;;
21943;SDS011;11136;48.778;9.126;2023-08-06T03:38:01;3.97;;;2.20;;
21943;SDS011;11136;48.778;9.126;2023-08-06T03:40:26;6.88;;;2.00;;
21943;SDS011;11136;48.778;9.126;2023-08-06T03:42:52;3.30;;;1.48;;
21943;SDS011;11136;48.778;9.126;2023-08-06T03:45:18;2.13;;;1.60;;
21943;SDS011;11136;48.778;9.126;2023-08-06T03:47:43;1.63;;;1.52;;
21943;SDS011;11136;48.778;9.126;2023-08-06T03:50:09;3.95;;;1.77;;
21943;SDS011;11136;48.778;9.126;2023-08-06T03:52:35;2.67;;;1.80;;
21943;SDS011;11136;48.778;9.126;2023-08-06T03:55:00;1.55;;;1.45;;
21943;SDS011;11136;48.778;9.126;2023-08-06T03:57:26;3.28;;;1.75;;
21943;SDS011;11136;48.778;9.126;2023-08-06T03:59:52;3.30;;;2.03;;
21943;SDS011;11136;48.778;9.126;2023-08-06T04:02:17;3.17;;;2.08;;
21943;SDS011;11136;48.778;9.126;2023-08-06T04:04:43;2.10;;;1.60;;
21943;SDS011;11136;48.778;9.126;2023-08-06T04:07:09;2.03;;;1.70;;
21943;SDS011;11136;48.778;9.126;2023-08-06T04:09:35;4.22;;;2.05;;
21943;SDS011;11136;48.778;9.126;2023-08-06T04:12:17;8.02;;;2.10;;
21943;SDS011;11136;48.778;9.126;2023-08-06T04:14:43;2.60;;;1.80;;
21943;SDS011;11136;48.778;9.126;2023-08-06T04:17:09;3.00;;;1.77;;
21943;SDS011;11136;48.778;9.126;2023-08-06T04:19:34;7.88;;;2.05;;
21943;SDS011;11136;48.778;9.126;2023-08-06T04:22:00;1.75;;;1.40;;
21943;SDS011;11136;48.778;9.126;2023-08-06T04:24:25;2.90;;;1.48;;
21943;SDS011;11136;48.778;9.126;2023-08-06T04:26:51;3.40;;;1.77;;
21943;SDS011;11136;48.778;9.126;2023-08-06T04:29:16;3.45;;;2.15;;
21943;SDS011;11136;48.778;9.126;2023-08-06T04:31:42;4.82;;;2.17;;
21943;SDS011;11136;48.778;9.126;2023-08-06T04:34:07;2.63;;;1.95;;
21943;SDS011;11136;48.778;9.126;2023-08-06T04:36:34;5.90;;;1.98;;
21943;SDS011;11136;48.778;9.126;2023-08-06T04:38:59;4.38;;;1.88;;
21943;SDS011;11136;48.778;9.126;2023-08-06T04:41:26;2.22;;;1.85;;
21943;SDS011;11136;48.778;9.126;2023-08-06T04:43:51;4.53;;;1.73;;
21943;SDS011;11136;48.778;9.126;2023-08-06T04:46:17;3.72;;;1.35;;
21943;SDS011;11136;48.778;9.126;2023-08-06T04:48:42;2.65;;;1.88;;
21943;SDS011;11136;48.778;9.126;2023-08-06T04:51:08;4.57;;;1.67;;
21943;SDS011;11136;48.778;9.126;2023-08-06T04:53:33;2.83;;;1.23;;
21943;SDS011;11136;48.778;9.126;2023-08-06T04:55:59;2.33;;;1.55;;
21943;SDS011;11136;48.778;9.126;2023-08-06T04:58:25;2.38;;;1.52;;
21943;SDS011;11136;48.778;9.126;2023-08-06T05:00:50;2.22;;;1.63;;
21943;SDS011;11136;48.778;9.126;2023-08-06T05:03:16;2.65;;;1.60;;
21943;SDS011;11136;48.778;9.126;2023-08-06T05:05:41;4.53;;;1.17;;
21943;SDS011;11136;48.778;9.126;2023-08-06T05:08:07;2.33;;;1.77;;
21943;SDS011;11136;48.778;9.126;2023-08-06T05:10:32;2.22;;;1.10;;
21943;SDS011;11136;48.778;9.126;2023-08-06T05:12:58;1.67;;;1.30;;
21943;SDS011;11136;48.778;9.126;2023-08-06T05:15:24;2.42;;;1.30;;
21943;SDS011;11136;48.778;9.126;2023-08-06T05:17:53;1.70;;;1.27;;
21943;SDS011;11136;48.778;9.126;2023-08-06T05:20:20;2.30;;;1.10;;
21943;SDS011;11136;48.778;9.126;2023-08-06T05:22:45;3.28;;;1.08;;
21943;SDS011;11136;48.778;9.126;2023-08-06T05:25:12;3.47;;;1.30;;
21943;SDS011;11136;48.778;9.126;2023-08-06T05:27:39;2.47;;;1.17;;
21943;SDS011;11136;48.778;9.126;2023-08-06T05:30:05;2.08;;;1.20;;
21943;SDS011;11136;48.778;9.126;2023-08-06T05:32:31;1.88;;;1.20;;
21943;SDS011;11136;48.778;9.126;2023-08-06T05:34:56;2.17;;;1.10;;
21943;SDS011;11136;48.778;9.126;2023-08-06T05:37:22;1.77;;;1.10;;
21943;SDS011;11136;48.778;9.126;2023-08-06T05:39:47;1.10;;;0.95;;
21943;SDS011;11136;48.778;9.126;2023-08-06T05:42:13;2.13;;;0.98;;
21943;SDS011;11136;48.778;9.126;2023-08-06T05:44:38;1.98;;;1.27;;
21943;SDS011;11136;48.778;9.126;2023-08-06T05:47:04;1.95;;;1.08;;
21943;SDS011;11136;48.778;9.126;2023-08-06T05:49:30;2.17;;;1.05;;
21943;SDS011;11136;48.778;9.126;2023-08-06T05:51:55;2.55;;;1.00;;
21943;SDS011;11136;48.778;9.126;2023-08-06T05:54:21;2.83;;;0.80;;
21943;SDS011;11136;48.778;9.126;2023-08-06T05:56:47;1.73;;;0.68;;
21943;SDS011;11136;48.778;9.126;2023-08-06T05:59:12;2.63;;;0.90;;
21943;SDS011;11136;48.778;9.126;2023-08-06T06:01:38;3.97;;;1.52;;
21943;SDS011;11136;48.778;9.126;2023-08-06T06:04:03;2.38;;;0.88;;
21943;SDS011;11136;48.778;9.126;2023-08-06T06:06:29;1.42;;;0.63;;
21943;SDS011;11136;48.778;9.126;2023-08-06T06:08:54;1.90;;;0.80;;
21943;SDS011;11136;48.778;9.126;2023-08-06T06:11:20;1.98;;;0.80;;
21943;SDS011;11136;48.778;9.126;2023-08-06T06:13:48;0.85;;;0.52;;
21943;SDS011;11136;48.778;9.126;2023-08-06T06:16:16;1.45;;;0.50;;
21943;SDS011;11136;48.778;9.126;2023-08-06T06:18:42;1.77;;;0.65;;
21943;SDS011;11136;48.778;9.126;2023-08-06T06:21:08;3.95;;;1.48;;
21943;SDS011;11136;48.778;9.126;2023-08-06T06:23:34;1.40;;;0.70;;
21943;SDS011;11136;48.778;9.126;2023-08-06T06:26:00;2.17;;;0.50;;
21943;SDS011;11136;48.778;9.126;2023-08-06T06:28:26;2.03;;;0.65;;
21943;SDS011;11136;48.778;9.126;2023-08-06T06:30:52;0.55;;;0.55;;
21943;SDS011;11136;48.778;9.126;2023-08-06T06:33:17;4.18;;;0.93;;
21943;SDS011;11136;48.778;9.126;2023-08-06T06:35:43;1.92;;;0.65;;
21943;SDS011;11136;48.778;9.126;2023-08-06T06:38:09;0.52;;;0.40;;
21943;SDS011;11136;48.778;9.126;2023-08-06T06:40:34;2.42;;;0.68;;
21943;SDS011;11136;48.778;9.126;2023-08-06T06:43:00;0.82;;;0.60;;
21943;SDS011;11136;48.778;9.126;2023-08-06T06:45:25;1.08;;;0.70;;
21943;SDS011;11136;48.778;9.126;2023-08-06T06:47:51;4.13;;;0.50;;
21943;SDS011;11136;48.778;9.126;2023-08-06T06:50:16;5.68;;;0.65;;
21943;SDS011;11136;48.778;9.126;2023-08-06T06:52:42;1.05;;;0.38;;
21943;SDS011;11136;48.778;9.126;2023-08-06T06:55:08;0.90;;;0.70;;
21943;SDS011;11136;48.778;9.126;2023-08-06T06:57:33;0.93;;;0.30;;
21943;SDS011;11136;48.778;9.126;2023-08-06T06:59:59;1.48;;;0.75;;
21943;SDS011;11136;48.778;9.126;2023-08-06T07:02:25;0.80;;;0.50;;
21943;SDS011;11136;48.778;9.126;2023-08-06T07:04:50;1.95;;;0.50;;
21943;SDS011;11136;48.778;9.126;2023-08-06T07:07:16;0.93;;;0.50;;
21943;SDS011;11136;48.778;9.126;2023-08-06T07:09:41;1.70;;;0.70;;
21943;SDS011;11136;48.778;9.126;2023-08-06T07:12:07;3.05;;;0.75;;
21943;SDS011;11136;48.778;9.126;2023-08-06T07:14:33;1.92;;;0.60;;
21943;SDS011;11136;48.778;9.126;2023-08-06T07:16:58;0.32;;;0.32;;
21943;SDS011;11136;48.778;9.126;2023-08-06T07:19:24;1.50;;;0.50;;
21943;SDS011;11136;48.778;9.126;2023-08-06T07:21:49;1.00;;;0.60;;
21943;SDS011;11136;48.778;9.126;2023-08-06T07:24:15;1.88;;;0.55;;
21943;SDS011;11136;48.778;9.126;2023-08-06T07:26:41;0.90;;;0.50;;
21943;SDS011;11136;48.778;9.126;2023-08-06T07:29:06;0.63;;;0.50;;
21943;SDS011;11136;48.778;9.126;2023-08-06T07:31:32;1.83;;;0.57;;
21943;SDS011;11136;48.778;9.126;2023-08-06T07:33:57;1.60;;;1.08;;
21943;SDS011;11136;48.778;9.126;2023-08-06T07:36:23;0.43;;;0.28;;
21943;SDS011;11136;48.778;9.126;2023-08-06T07:38:48;1.85;;;0.40;;
21943;SDS011;11136;48.778;9.126;2023-08-06T07:41:20;0.70;;;0.47;;
21943;SDS011;11136;48.778;9.126;2023-08-06T07:43:46;1.02;;;0.38;;
21943;SDS011;11136;48.778;9.126;2023-08-06T07:46:12;1.13;;;0.50;;
21943;SDS011;11136;48.778;9.126;2023-08-06T07:48:38;0.93;;;0.30;;
21943;SDS011;11136;48.778;9.126;2023-08-06T07:51:04;1.05;;;0.50;;
21943;SDS011;11136;48.778;9.126;2023-08-06T07:53:29;0.85;;;0.43;;
21943;SDS011;11136;48.778;9.126;2023-08-06T07:55:55;0.73;;;0.40;;
21943;SDS011;11136;48.778;9.126;2023-08-06T07:58:23;0.47;;;0.30;;
21943;SDS011;11136;48.778;9.126;2023-08-06T08:00:49;0.52;;;0.35;;
21943;SDS011;11136;48.778;9.126;2023-08-06T08:03:15;0.85;;;0.40;;
21943;SDS011;11136;48.778;9.126;2023-08-06T08:05:42;1.20;;;0.47;;
21943;SDS011;11136;48.778;9.126;2023-08-06T08:08:08;0.52;;;0.30;;
21943;SDS011;11136;48.778;9.126;2023-08-06T08:10:34;0.32;;;0.32;;
21943;SDS011;11136;48.778;9.126;2023-08-06T08:13:03;1.65;;;0.20;;
21943;SDS011;11136;48.778;9.126;2023-08-06T08:15:29;0.43;;;0.40;;
21943;SDS011;11136;48.778;9.126;2023-08-06T08:17:56;0.38;;;0.22;;
21943;SDS011;11136;48.778;9.126;2023-08-06T08:20:22;0.85;;;0.30;;
21943;SDS011;11136;48.778;9.126;2023-08-06T08:22:48;0.25;;;0.10;;
21943;SDS011;11136;48.778;9.126;2023-08-06T08:25:13;0.38;;;0.25;;
21943;SDS011;11136;48.778;9.126;2023-08-06T08:27:40;0.45;;;0.10;;
21943;SDS011;11136;48.778;9.126;2023-08-06T08:30:06;0.45;;;0.17;;
21943;SDS011;11136;48.778;9.126;2023-08-06T08:32:32;0.65;;;0.30;;
21943;SDS011;11136;48.778;9.126;2023-08-06T08:34:57;1.20;;;0.20;;
21943;SDS011;11136;48.778;9.126;2023-08-06T08:37:23;0.10;;;0.10;;
21943;SDS011;11136;48.778;9.126;2023-08-06T08:39:49;0.45;;;0.17;;
21943;SDS011;11136;48.778;9.126;2023-08-06T08:42:15;0.25;;;0.10;;
21943;SDS011;11136;48.778;9.126;2023-08-06T08:44:44;1.35;;;0.10;;
21943;SDS011;11136;48.778;9.126;2023-08-06T08:47:10;0.10;;;0.10;;
21943;SDS011;11136;48.778;9.126;2023-08-06T08:49:37;0.10;;;0.10;;
21943;SDS011;11136;48.778;9.126;2023-08-06T08:52:04;0.30;;;0.10;;
21943;SDS011;11136;48.778;9.126;2023-08-06T08:57:02;0.30;;;0.20;;
21943;SDS011;11136;48.778;9.126;2023-08-06T08:59:28;0.00;;;0.00;;
21943;SDS011;11136;48.778;9.126;2023-08-06T09:01:54;0.10;;;0.10;;
21943;SDS011;11136;48.778;9.126;2023-08-06T09:04:20;0.25;;;0.00;;
21943;SDS011;11136;48.778;9.126;2023-08-06T09:06:46;0.10;;;0.10;;
21943;SDS011;11136;48.778;9.126;2023-08-06T09:09:16;0.10;;;0.10;;
21943;SDS011;11136;48.778;9.126;2023-08-06T09:11:47;0.50;;;0.10;;
21943;SDS011;11136;48.778;9.126;2023-08-06T09:14:14;0.08;;;0.08;;
21943;SDS011;11136;48.778;9.126;2023-08-06T09:16:41;3.20;;;0.20;;
21943;SDS011;11136;48.778;9.126;2023-08-06T09:19:07;0.10;;;0.10;;
21943;SDS011;11136;48.778;9.126;2023-08-06T09:21:36;0.20;;;0.08;;
21943;SDS011;11136;48.778;9.126;2023-08-06T09:24:06;0.10;;;0.10;;
21943;SDS011;11136;48.778;9.126;2023-08-06T09:26:36;0.28;;;0.28;;
21943;SDS011;11136;48.778;9.126;2023-08-06T09:29:04;1.73;;;0.20;;
21943;SDS011;11136;48.778;9.126;2023-08-06T09:31:41;0.52;;;0.20;;
21943;SDS011;11136;48.778;9.126;2023-08-06T09:36:41;0.10;;;0.10;;
21943;SDS011;11136;48.778;9.126;2023-08-06T09:39:18;0.52;;;0.00;;
21943;SDS011;11136;48.778;9.126;2023-08-06T09:41:45;0.25;;;0.10;;
21943;SDS011;11136;48.778;9.126;2023-08-06T09:44:19;0.17;;;0.00;;
21943;SDS011;11136;48.778;9.126;2023-08-06T09:46:51;0.05;;;0.00;;
21943;SDS011;11136;48.778;9.126;2023-08-06T09:49:24;0.00;;;0.00;;
21943;SDS011;11136;48.778;9.126;2023-08-06T09:51:52;0.10;;;0.10;;
21943;SDS011;11136;48.778;9.126;2023-08-06T09:54:22;0.00;;;0.00;;
21943;SDS011;11136;48.778;9.126;2023-08-06T09:56:48;0.38;;;0.10;;
21943;SDS011;11136;48.778;9.126;2023-08-06T09:59:14;0.17;;;0.17;;
21943;SDS011;11136;48.778;9.126;2023-08-06T10:01:43;0.70;;;0.10;;
21943;SDS011;11136;48.778;9.126;2023-08-06T10:04:10;0.00;;;0.00;;
21943;SDS011;11136;48.778;9.126;2023-08-06T10:06:37;1.83;;;0.10;;
21943;SDS011;11136;48.778;9.126;2023-08-06T10:09:04;0.10;;;0.10;;
21943;SDS011;11136;48.778;9.126;2023-08-06T10:11:30;0.05;;;0.05;;
21943;SDS011;11136;48.778;9.126;2023-08-06T10:14:10;0.00;;;0.00;;
21943;SDS011;11136;48.778;9.126;2023-08-06T10:16:38;0.10;;;0.08;;
21943;SDS011;11136;48.778;9.126;2023-08-06T10:19:05;0.03;;;0.00;;
21943;SDS011;11136;48.778;9.126;2023-08-06T10:21:34;0.10;;;0.10;;
21943;SDS011;11136;48.778;9.126;2023-08-06T10:23:59;0.68;;;0.50;;
21943;SDS011;11136;48.778;9.126;2023-08-06T10:26:27;0.93;;;0.40;;
21943;SDS011;11136;48.778;9.126;2023-08-06T10:28:53;0.90;;;0.52;;
21943;SDS011;11136;48.778;9.126;2023-08-06T10:31:19;1.33;;;0.70;;
21943;SDS011;11136;48.778;9.126;2023-08-06T10:33:45;0.52;;;0.20;;
21943;SDS011;11136;48.778;9.126;2023-08-06T10:36:12;1.95;;;0.20;;
21943;SDS011;11136;48.778;9.126;2023-08-06T10:38:45;0.50;;;0.22;;
21943;SDS011;11136;48.778;9.126;2023-08-06T10:41:15;0.30;;;0.20;;
21943;SDS011;11136;48.778;9.126;2023-08-06T10:43:48;1.55;;;0.22;;
21943;SDS011;11136;48.778;9.126;2023-08-06T10:46:26;0.65;;;0.10;;
21943;SDS011;11136;48.778;9.126;2023-08-06T10:48:52;0.10;;;0.05;;
21943;SDS011;11136;48.778;9.126;2023-08-06T10:51:18;0.10;;;0.10;;
21943;SDS011;11136;48.778;9.126;2023-08-06T10:53:49;0.28;;;0.10;;
21943;SDS011;11136;48.778;9.126;2023-08-06T10:56:16;0.10;;;0.10;;
21943;SDS011;11136;48.778;9.126;2023-08-06T10:58:47;0.75;;;0.22;;
21943;SDS011;11136;48.778;9.126;2023-08-06T11:01:14;0.47;;;0.10;;
21943;SDS011;11136;48.778;9.126;2023-08-06T11:03:41;0.20;;;0.20;;
21943;SDS011;11136;48.778;9.126;2023-08-06T11:06:08;0.50;;;0.10;;
21943;SDS011;11136;48.778;9.126;2023-08-06T11:08:35;0.80;;;0.80;;
21943;SDS011;11136;48.778;9.126;2023-08-06T11:11:09;0.38;;;0.32;;
21943;SDS011;11136;48.778;9.126;2023-08-06T11:13:47;0.40;;;0.20;;
21943;SDS011;11136;48.778;9.126;2023-08-06T11:16:15;0.60;;;0.40;;
21943;SDS011;11136;48.778;9.126;2023-08-06T11:18:42;0.52;;;0.25;;
21943;SDS011;11136;48.778;9.126;2023-08-06T11:21:08;0.55;;;0.30;;
21943;SDS011;11136;48.778;9.126;2023-08-06T11:23:34;0.40;;;0.30;;
21943;SDS011;11136;48.778;9.126;2023-08-06T11:26:01;0.30;;;0.30;;
21943;SDS011;11136;48.778;9.126;2023-08-06T11:28:27;0.32;;;0.32;;
21943;SDS011;11136;48.778;9.126;2023-08-06T11:30:52;1.65;;;0.65;;
21943;SDS011;11136;48.778;9.126;2023-08-06T11:33:23;0.50;;;0.32;;
21943;SDS011;11136;48.778;9.126;2023-08-06T11:35:56;1.00;;;0.70;;
21943;SDS011;11136;48.778;9.126;2023-08-06T11:38:29;0.73;;;0.60;;
21943;SDS011;11136;48.778;9.126;2023-08-06T11:40:55;0.60;;;0.60;;
21943;SDS011;11136;48.778;9.126;2023-08-06T11:43:22;0.90;;;0.68;;
21943;SDS011;11136;48.778;9.126;2023-08-06T11:45:48;1.45;;;0.90;;
21943;SDS011;11136;48.778;9.126;2023-08-06T11:48:14;6.88;;;0.90;;
21943;SDS011;11136;48.778;9.126;2023-08-06T11:50:40;2.50;;;0.82;;
21943;SDS011;11136;48.778;9.126;2023-08-06T11:53:05;1.25;;;0.73;;
21943;SDS011;11136;48.778;9.126;2023-08-06T11:55:31;1.58;;;0.60;;
21943;SDS011;11136;48.778;9.126;2023-08-06T11:57:57;1.63;;;0.77;;
21943;SDS011;11136;48.778;9.126;2023-08-06T12:00:24;2.70;;;0.65;;
21943;SDS011;11136;48.778;9.126;2023-08-06T12:02:51;1.80;;;1.00;;
21943;SDS011;11136;48.778;9.126;2023-08-06T12:05:20;1.63;;;0.80;;
21943;SDS011;11136;48.778;9.126;2023-08-06T12:07:57;1.48;;;0.80;;
21943;SDS011;11136;48.778;9.126;2023-08-06T12:10:24;1.17;;;0.73;;
21943;SDS011;11136;48.778;9.126;2023-08-06T12:12:51;1.05;;;0.77;;
21943;SDS011;11136;48.778;9.126;2023-08-06T12:15:17;1.60;;;0.80;;
21943;SDS011;11136;48.778;9.126;2023-08-06T12:17:42;0.98;;;0.90;;
21943;SDS011;11136;48.778;9.126;2023-08-06T12:20:09;2.70;;;0.73;;
21943;SDS011;11136;48.778;9.126;2023-08-06T12:22:35;1.92;;;0.80;;
21943;SDS011;11136;48.778;9.126;2023-08-06T12:25:04;1.15;;;0.85;;
21943;SDS011;11136;48.778;9.126;2023-08-06T12:27:33;2.15;;;0.90;;
21943;SDS011;11136;48.778;9.126;2023-08-06T12:29:59;1.00;;;0.80;;
21943;SDS011;11136;48.778;9.126;2023-08-06T12:32:25;1.90;;;1.33;;
21943;SDS011;11136;48.778;9.126;2023-08-06T12:34:51;1.20;;;0.90;;
21943;SDS011;11136;48.778;9.126;2023-08-06T12:37:16;2.17;;;1.20;;
21943;SDS011;11136;48.778;9.126;2023-08-06T12:39:45;2.15;;;0.90;;
21943;SDS011;11136;48.778;9.126;2023-08-06T12:42:11;1.13;;;1.00;;
21943;SDS011;11136;48.778;9.126;2023-08-06T12:44:39;3.08;;;0.80;;
21943;SDS011;11136;48.778;9.126;2023-08-06T12:47:06;0.82;;;0.70;;
21943;SDS011;11136;48.778;9.126;2023-08-06T12:49:32;2.08;;;0.93;;
21943;SDS011;11136;48.778;9.126;2023-08-06T12:51:58;2.08;;;0.75;;
21943;SDS011;11136;48.778;9.126;2023-08-06T12:54:27;1.00;;;0.73;;
21943;SDS011;11136;48.778;9.126;2023-08-06T12:56:54;0.88;;;0.52;;
21943;SDS011;11136;48.778;9.126;2023-08-06T12:59:20;1.30;;;0.45;;
21943;SDS011;11136;48.778;9.126;2023-08-06T13:01:46;1.10;;;0.75;;
21943;SDS011;11136;48.778;9.126;2023-08-06T13:04:12;0.55;;;0.50;;
21943;SDS011;11136;48.778;9.126;2023-08-06T13:06:37;1.13;;;0.60;;
21943;SDS011;11136;48.778;9.126;2023-08-06T13:09:07;2.03;;;0.95;;
21943;SDS011;11136;48.778;9.126;2023-08-06T13:11:37;0.80;;;0.65;;
21943;SDS011;11136;48.778;9.126;2023-08-06T13:14:04;1.52;;;0.70;;
21943;SDS011;11136;48.778;9.126;2023-08-06T13:16:31;0.63;;;0.57;;
21943;SDS011;11136;48.778;9.126;2023-08-06T13:18:57;2.13;;;0.73;;
21943;SDS011;11136;48.778;9.126;2023-08-06T13:21:23;1.70;;;0.77;;
21943;SDS011;11136;48.778;9.126;2023-08-06T13:23:49;1.40;;;0.98;;
21943;SDS011;11136;48.778;9.126;2023-08-06T13:26:14;2.70;;;1.00;;
21943;SDS011;11136;48.778;9.126;2023-08-06T13:28:43;0.63;;;0.50;;
21943;SDS011;11136;48.778;9.126;2023-08-06T13:31:09;1.00;;;0.90;;
21943;SDS011;11136;48.778;9.126;2023-08-06T13:33:34;2.20;;;0.63;;
21943;SDS011;11136;48.778;9.126;2023-08-06T13:36:00;0.85;;;0.73;;
21943;SDS011;11136;48.778;9.126;2023-08-06T13:38:26;0.25;;;0.25;;
21943;SDS011;11136;48.778;9.126;2023-08-06T13:40:51;3.25;;;1.02;;
21943;SDS011;11136;48.778;9.126;2023-08-06T13:43:17;2.22;;;0.60;;
21943;SDS011;11136;48.778;9.126;2023-08-06T13:45:44;0.75;;;0.45;;
21943;SDS011;11136;48.778;9.126;2023-08-06T13:48:09;0.85;;;0.40;;
21943;SDS011;11136;48.778;9.126;2023-08-06T13:50:35;0.43;;;0.40;;
21943;SDS011;11136;48.778;9.126;2023-08-06T13:53:02;0.30;;;0.30;;
21943;SDS011;11136;48.778;9.126;2023-08-06T13:55:28;0.47;;;0.47;;
21943;SDS011;11136;48.778;9.126;2023-08-06T13:57:53;0.50;;;0.47;;
21943;SDS011;11136;48.778;9.126;2023-08-06T14:00:19;0.93;;;0.52;;
21943;SDS011;11136;48.778;9.126;2023-08-06T14:02:44;0.68;;;0.52;;
21943;SDS011;11136;48.778;9.126;2023-08-06T14:05:10;1.00;;;0.85;;
21943;SDS011;11136;48.778;9.126;2023-08-06T14:07:36;3.08;;;0.60;;
21943;SDS011;11136;48.778;9.126;2023-08-06T14:10:01;3.15;;;0.60;;
21943;SDS011;11136;48.778;9.126;2023-08-06T14:12:27;1.70;;;0.50;;
21943;SDS011;11136;48.778;9.126;2023-08-06T14:14:52;1.10;;;0.47;;
21943;SDS011;11136;48.778;9.126;2023-08-06T14:17:18;0.60;;;0.60;;
21943;SDS011;11136;48.778;9.126;2023-08-06T14:19:44;2.47;;;0.55;;
21943;SDS011;11136;48.778;9.126;2023-08-06T14:22:10;0.70;;;0.40;;
21943;SDS011;11136;48.778;9.126;2023-08-06T14:24:35;0.50;;;0.47;;
21943;SDS011;11136;48.778;9.126;2023-08-06T14:27:01;1.45;;;0.43;;
21943;SDS011;11136;48.778;9.126;2023-08-06T14:29:29;0.60;;;0.52;;
21943;SDS011;11136;48.778;9.126;2023-08-06T14:31:54;0.60;;;0.60;;
21943;SDS011;11136;48.778;9.126;2023-08-06T14:34:20;0.40;;;0.40;;
21943;SDS011;11136;48.778;9.126;2023-08-06T14:36:46;0.70;;;0.50;;
21943;SDS011;11136;48.778;9.126;2023-08-06T14:39:11;2.55;;;0.70;;
21943;SDS011;11136;48.778;9.126;2023-08-06T14:41:37;0.55;;;0.40;;
21943;SDS011;11136;48.778;9.126;2023-08-06T14:44:03;2.47;;;0.80;;
21943;SDS011;11136;48.778;9.126;2023-08-06T14:46:28;2.70;;;1.17;;
21943;SDS011;11136;48.778;9.126;2023-08-06T14:48:54;0.93;;;0.40;;
21943;SDS011;11136;48.778;9.126;2023-08-06T14:51:19;1.33;;;0.50;;
21943;SDS011;11136;48.778;9.126;2023-08-06T14:53:45;0.40;;;0.40;;
21943;SDS011;11136;48.778;9.126;2023-08-06T14:56:11;0.50;;;0.50;;
21943;SDS011;11136;48.778;9.126;2023-08-06T14:58:36;1.27;;;0.60;;
21943;SDS011;11136;48.778;9.126;2023-08-06T15:01:02;1.00;;;0.52;;
21943;SDS011;11136;48.778;9.126;2023-08-06T15:03:28;1.33;;;0.70;;
21943;SDS011;11136;48.778;9.126;2023-08-06T15:05:53;1.23;;;0.90;;